Airfield :
LOGIN :

Register | Disclaimer

   EN    FR    IT 

 










Legend :    VFR   Marginal VFR   IFR   Intensive IFR   Very Intensive IFR
Visi :
Ceiling :
>= 8 km
>= 3000ft
5 to 8 km
1000 to 3000 ft
1500m to 5 km
500 to 1000 ft
800 to 1500m
200 to 500 ft
< 800m
< 200 ft
Symbols :   Thunderstorms  Fog  Heavy snow  Heavy precipitations  Wind > 20 kt
SIGMETs :     Misc.  Thunderstorms  Icing  Turbulence  Mountain Waves  Volcanic Ashes






- Airport Elevation : 11 ft
- IATA code : PVK


LGPZ - Aktion Lefkada Preveza

CURRENT METAR :
  • 081020Z 08004KT 8000 -TSRA FEW018CB FEW020TCU BKN025 BKN080 13/12 Q1015

EXPIRED METARs :
  • 080950Z 09008KT 7000 -TSRA FEW018CB FEW020TCU BKN025 OVC080 13/12 Q1016
  • 080920Z 07008KT 6000 TSRA FEW018CB FEW020TCU BKN025 OVC080 13/12 Q1016
  • 080850Z 07008KT 6000 TSRA FEW018CB FEW020TCU BKN025 OVC080 14/12 Q1016
  • 080820Z 04008KT 7000 -TSRA FEW018CB FEW020TCU BKN025 OVC080 14/12 Q1016
  • 080750Z 04009KT 9999 -TSRA FEW018CB FEW020TCU BKN025 BKN080 14/12 Q1015 RMK CBNW10KM BLU

TAF TAF LGPZ
Valid from the 08 at 06:00 until the 09 at 06:00 UTC


080500Z 0806/0906 08010KT 9999 FEW015 SCT025 BKN080
PROB30
TEMPO 0806/0906 5000 RA FEW012 FEW015TCU BKN020
PROB30
TEMPO 0806/0906 3000 TSRA SCT008 FEW015CB BKN020 OVC070



MET'MAP, your aeronautical weather chart ! - Copyright ORBIFLY December 2007 - Disclaimer

ORBIFLY MET'MAP TEAM :

Programming & Development : Alexandra Zaïnal
Original concept : Baudouin d'Aumeries
Technical & hardware support : Manuel Goepfert
Assistance : Marc-Olivier Méhu




SOURCES & CREDITS :

   NOAA